Time,TemperatureF,DewpointF,PressureIn,WindDirection,WindDirectionDegrees,WindSpeedMPH,WindSpeedGustMPH,Humidity,HourlyPrecipIn,Conditions,Clouds,dailyrainin,SoftwareType,DateUTC
2013-05-02 00:01:00,52.7,43.9,30.41,WNW,295,9.0,9.0,72,0.00,,,0.00,Wunderground v.1.15,2013-05-02 04:01:00,
2013-05-02 00:06:00,52.3,44.3,30.41,WNW,288,9.0,10.0,74,0.00,,,0.00,Wunderground v.1.15,2013-05-02 04:06:00,
2013-05-02 00:11:00,51.9,44.6,30.41,WNW,287,9.0,9.0,76,0.00,,,0.00,Wunderground v.1.15,2013-05-02 04:11:00,
2013-05-02 00:16:00,51.9,43.9,30.41,WNW,289,10.0,10.0,74,0.00,,,0.00,Wunderground v.1.15,2013-05-02 04:16:00,
2013-05-02 00:21:00,51.8,44.1,30.40,WNW,287,9.0,11.0,75,0.00,,,0.00,Wunderground v.1.15,2013-05-02 04:21:00,
2013-05-02 00:26:00,51.4,45.1,30.41,WNW,287,9.0,11.0,79,0.00,,,0.00,Wunderground v.1.15,2013-05-02 04:26:00,
2013-05-02 00:31:00,51.0,45.7,30.41,WNW,291,8.0,9.0,82,0.00,,,0.00,Wunderground v.1.15,2013-05-02 04:31:00,
2013-05-02 00:36:00,50.6,45.3,30.41,West,280,8.0,9.0,82,0.00,,,0.00,Wunderground v.1.15,2013-05-02 04:36:00,
2013-05-02 00:41:00,50.5,45.5,30.40,West,278,8.0,8.0,83,0.00,,,0.00,Wunderground v.1.15,2013-05-02 04:41:00,
2013-05-02 00:46:00,50.3,45.6,30.41,WNW,283,9.0,9.0,84,0.00,,,0.00,Wunderground v.1.15,2013-05-02 04:46:00,
2013-05-02 00:51:00,50.2,45.9,30.40,WNW,288,8.0,9.0,85,0.00,,,0.00,Wunderground v.1.15,2013-05-02 04:51:00,
2013-05-02 00:56:00,50.1,45.8,30.40,WNW,287,8.0,9.0,85,0.00,,,0.00,Wunderground v.1.15,2013-05-02 04:56:00,
2013-05-02 01:01:00,50.0,46.0,30.40,WNW,293,9.0,9.0,86,0.00,,,0.00,Wunderground v.1.15,2013-05-02 05:01:00,
2013-05-02 01:06:00,50.1,46.1,30.40,WNW,287,9.0,10.0,86,0.00,,,0.00,Wunderground v.1.15,2013-05-02 05:06:00,
2013-05-02 01:11:00,50.1,45.8,30.40,WNW,287,8.0,9.0,85,0.00,,,0.00,Wunderground v.1.15,2013-05-02 05:11:00,
2013-05-02 01:16:00,50.2,45.9,30.40,WNW,283,9.0,9.0,85,0.00,,,0.00,Wunderground v.1.15,2013-05-02 05:16:00,
2013-05-02 01:21:00,50.2,45.9,30.40,West,274,9.0,9.0,85,0.00,,,0.00,Wunderground v.1.15,2013-05-02 05:21:00,
2013-05-02 01:26:00,50.1,45.5,30.40,West,272,8.0,10.0,84,0.00,,,0.00,Wunderground v.1.15,2013-05-02 05:26:00,
2013-05-02 01:31:00,50.1,45.8,30.39,West,270,9.0,10.0,85,0.00,,,0.00,Wunderground v.1.15,2013-05-02 05:31:00,
2013-05-02 01:36:00,50.1,46.1,30.40,West,267,10.0,10.0,86,0.00,,,0.00,Wunderground v.1.15,2013-05-02 05:36:00,
2013-05-02 01:41:00,50.0,46.0,30.39,West,262,9.0,10.0,86,0.00,,,0.00,Wunderground v.1.15,2013-05-02 05:41:00,
2013-05-02 01:46:00,49.9,45.9,30.39,West,259,10.0,11.0,86,0.00,,,0.00,Wunderground v.1.15,2013-05-02 05:46:00,
2013-05-02 01:51:00,49.8,46.1,30.39,WSW,250,10.0,11.0,87,0.00,,,0.00,Wunderground v.1.15,2013-05-02 05:51:00,
2013-05-02 01:56:00,49.6,46.2,30.39,WSW,250,8.0,11.0,88,0.00,,,0.00,Wunderground v.1.15,2013-05-02 05:56:00,
2013-05-02 02:01:00,49.7,45.7,30.39,WSW,254,9.0,9.0,86,0.00,,,0.00,Wunderground v.1.15,2013-05-02 06:01:00,
2013-05-02 02:06:00,49.9,45.6,30.39,WSW,257,9.0,10.0,85,0.00,,,0.00,Wunderground v.1.15,2013-05-02 06:06:00,
2013-05-02 02:11:00,50.1,45.5,30.39,West,259,9.0,10.0,84,0.00,,,0.00,Wunderground v.1.15,2013-05-02 06:11:00,
2013-05-02 02:16:00,50.1,45.8,30.40,WSW,254,9.0,10.0,85,0.00,,,0.00,Wunderground v.1.15,2013-05-02 06:16:00,
2013-05-02 02:21:00,50.0,46.0,30.39,West,260,9.0,9.0,86,0.00,,,0.00,Wunderground v.1.15,2013-05-02 06:21:00,
2013-05-02 02:26:00,50.1,45.1,30.39,West,263,9.0,10.0,83,0.00,,,0.00,Wunderground v.1.15,2013-05-02 06:26:00,
2013-05-02 02:31:00,50.2,45.6,30.39,West,267,8.0,9.0,84,0.00,,,0.00,Wunderground v.1.15,2013-05-02 06:31:00,
2013-05-02 02:36:00,50.0,45.4,30.39,West,269,7.0,9.0,84,0.00,,,0.00,Wunderground v.1.15,2013-05-02 06:36:00,
2013-05-02 02:40:00,49.9,45.6,30.39,West,260,6.0,7.0,85,0.00,,,0.00,Wunderground v.1.15,2013-05-02 06:40:00,
2013-05-02 02:45:00,49.8,45.8,30.39,West,270,5.0,8.0,86,0.00,,,0.00,Wunderground v.1.15,2013-05-02 06:45:00,
2013-05-02 02:50:00,49.7,46.0,30.39,West,263,8.0,8.0,87,0.00,,,0.00,Wunderground v.1.15,2013-05-02 06:50:00,
2013-05-02 02:55:00,49.6,45.9,30.39,West,267,8.0,9.0,87,0.00,,,0.00,Wunderground v.1.15,2013-05-02 06:55:00,
2013-05-02 03:00:00,49.6,45.9,30.39,West,259,9.0,9.0,87,0.00,,,0.00,Wunderground v.1.15,2013-05-02 07:00:00,
2013-05-02 03:05:00,49.6,45.6,30.39,West,263,7.0,9.0,86,0.00,,,0.00,Wunderground v.1.15,2013-05-02 07:05:00,
2013-05-02 03:10:00,49.5,45.8,30.39,West,259,8.0,8.0,87,0.00,,,0.00,Wunderground v.1.15,2013-05-02 07:10:00,
2013-05-02 03:15:00,49.6,45.6,30.39,West,260,8.0,8.0,86,0.00,,,0.00,Wunderground v.1.15,2013-05-02 07:15:00,
2013-05-02 03:20:00,49.5,45.8,30.39,West,262,8.0,9.0,87,0.00,,,0.00,Wunderground v.1.15,2013-05-02 07:20:00,
2013-05-02 03:25:00,49.5,46.1,30.39,West,269,8.0,9.0,88,0.00,,,0.00,Wunderground v.1.15,2013-05-02 07:25:00,
2013-05-02 03:30:00,49.5,46.1,30.38,West,266,8.0,10.0,88,0.00,,,0.00,Wunderground v.1.15,2013-05-02 07:30:00,
2013-05-02 03:35:00,49.4,46.3,30.38,West,259,8.0,10.0,89,0.00,,,0.00,Wunderground v.1.15,2013-05-02 07:35:00,
2013-05-02 03:40:00,49.3,46.5,30.38,West,266,8.0,9.0,90,0.00,,,0.00,Wunderground v.1.15,2013-05-02 07:40:00,
2013-05-02 03:45:00,49.2,46.4,30.38,West,259,9.0,11.0,90,0.00,,,0.00,Wunderground v.1.15,2013-05-02 07:45:00,
2013-05-02 03:50:00,49.1,46.6,30.38,WSW,257,9.0,10.0,91,0.00,,,0.00,Wunderground v.1.15,2013-05-02 07:50:00,
2013-05-02 03:55:00,49.1,46.6,30.38,West,269,9.0,11.0,91,0.00,,,0.00,Wunderground v.1.15,2013-05-02 07:55:00,
2013-05-02 04:00:00,49.1,46.6,30.38,West,266,8.0,10.0,91,0.00,,,0.00,Wunderground v.1.15,2013-05-02 08:00:00,
2013-05-02 04:05:00,49.1,46.6,30.38,West,269,8.0,11.0,91,0.00,,,0.00,Wunderground v.1.15,2013-05-02 08:05:00,
2013-05-02 04:10:00,49.2,46.7,30.38,West,270,10.0,11.0,91,0.00,,,0.00,Wunderground v.1.15,2013-05-02 08:10:00,
2013-05-02 04:15:00,49.2,46.1,30.38,West,269,9.0,11.0,89,0.00,,,0.00,Wunderground v.1.15,2013-05-02 08:15:00,
2013-05-02 04:20:00,49.3,45.9,30.38,West,270,9.0,9.0,88,0.00,,,0.00,Wunderground v.1.15,2013-05-02 08:20:00,
2013-05-02 04:25:00,49.5,45.5,30.38,West,266,10.0,10.0,86,0.00,,,0.00,Wunderground v.1.15,2013-05-02 08:25:00,
2013-05-02 04:30:00,49.5,45.8,30.38,West,269,9.0,10.0,87,0.00,,,0.00,Wunderground v.1.15,2013-05-02 08:30:00,
2013-05-02 04:35:00,49.4,46.3,30.38,West,277,9.0,10.0,89,0.00,,,0.00,Wunderground v.1.15,2013-05-02 08:35:00,
2013-05-02 04:40:00,49.3,46.2,30.37,West,278,8.0,8.0,89,0.00,,,0.00,Wunderground v.1.15,2013-05-02 08:40:00,
2013-05-02 04:45:00,49.3,46.5,30.37,West,273,8.0,9.0,90,0.00,,,0.00,Wunderground v.1.15,2013-05-02 08:45:00,
2013-05-02 04:50:00,49.2,46.4,30.37,West,277,9.0,9.0,90,0.00,,,0.00,Wunderground v.1.15,2013-05-02 08:50:00,
2013-05-02 04:55:00,49.2,46.4,30.37,West,277,9.0,10.0,90,0.00,,,0.00,Wunderground v.1.15,2013-05-02 08:55:00,
2013-05-02 05:00:00,49.2,46.7,30.37,West,276,9.0,9.0,91,0.00,,,0.00,Wunderground v.1.15,2013-05-02 09:00:00,
2013-05-02 05:05:00,49.1,46.3,30.38,WNW,283,9.0,9.0,90,0.00,,,0.00,Wunderground v.1.15,2013-05-02 09:05:00,
2013-05-02 05:10:00,49.1,46.3,30.38,WNW,285,9.0,9.0,90,0.00,,,0.00,Wunderground v.1.15,2013-05-02 09:10:00,
2013-05-02 05:15:00,49.1,46.0,30.38,WNW,288,9.0,9.0,89,0.00,,,0.00,Wunderground v.1.15,2013-05-02 09:15:00,
2013-05-02 05:20:00,49.0,45.9,30.38,WNW,285,8.0,9.0,89,0.00,,,0.00,Wunderground v.1.15,2013-05-02 09:20:00,
2013-05-02 05:25:00,48.9,46.1,30.38,WNW,293,8.0,9.0,90,0.00,,,0.00,Wunderground v.1.15,2013-05-02 09:25:00,
2013-05-02 05:30:00,48.9,46.1,30.38,WNW,294,8.0,8.0,90,0.00,,,0.00,Wunderground v.1.15,2013-05-02 09:30:00,
2013-05-02 05:35:00,48.9,46.4,30.38,WNW,299,8.0,8.0,91,0.00,,,0.00,Wunderground v.1.15,2013-05-02 09:35:00,
2013-05-02 05:40:00,48.9,46.1,30.38,NW,310,8.0,8.0,90,0.00,,,0.00,Wunderground v.1.15,2013-05-02 09:40:00,
2013-05-02 05:45:00,49.0,45.9,30.38,NW,308,8.0,8.0,89,0.00,,,0.00,Wunderground v.1.15,2013-05-02 09:45:00,
2013-05-02 05:50:00,49.1,46.0,30.38,NW,311,8.0,8.0,89,0.00,,,0.00,Wunderground v.1.15,2013-05-02 09:50:00,
2013-05-02 05:55:00,49.1,45.7,30.38,NW,311,8.0,8.0,88,0.00,,,0.00,Wunderground v.1.15,2013-05-02 09:55:00,
2013-05-02 06:00:00,49.1,45.7,30.38,NW,314,8.0,8.0,88,0.00,,,0.00,Wunderground v.1.15,2013-05-02 10:00:00,
2013-05-02 06:05:00,49.0,45.6,30.38,NW,313,7.0,8.0,88,0.00,,,0.00,Wunderground v.1.15,2013-05-02 10:05:00,
2013-05-02 06:10:00,49.0,45.3,30.38,NW,311,7.0,7.0,87,0.00,,,0.00,Wunderground v.1.15,2013-05-02 10:10:00,
2013-05-02 06:15:00,49.0,45.3,30.38,NW,307,7.0,7.0,87,0.00,,,0.00,Wunderground v.1.15,2013-05-02 10:15:00,
2013-05-02 06:20:00,48.9,45.2,30.38,NW,310,7.0,7.0,87,0.00,,,0.00,Wunderground v.1.15,2013-05-02 10:20:00,
2013-05-02 06:25:00,48.9,44.9,30.38,NW,310,7.0,7.0,86,0.00,,,0.00,Wunderground v.1.15,2013-05-02 10:25:00,
2013-05-02 06:30:00,48.9,45.2,30.38,NW,317,6.0,7.0,87,0.00,,,0.00,Wunderground v.1.15,2013-05-02 10:30:00,
2013-05-02 06:35:00,48.9,45.5,30.38,NNW,330,6.0,7.0,88,0.00,,,0.00,Wunderground v.1.15,2013-05-02 10:35:00,
2013-05-02 06:40:00,48.8,45.7,30.39,NNW,336,6.0,6.0,89,0.00,,,0.00,Wunderground v.1.15,2013-05-02 10:40:00,
2013-05-02 06:45:00,48.7,45.6,30.38,NNW,334,6.0,6.0,89,0.00,,,0.00,Wunderground v.1.15,2013-05-02 10:45:00,
2013-05-02 06:50:00,48.6,45.5,30.38,NW,324,5.0,6.0,89,0.00,,,0.00,Wunderground v.1.15,2013-05-02 10:50:00,
2013-05-02 06:55:00,48.6,45.5,30.38,NNW,336,6.0,6.0,89,0.00,,,0.00,Wunderground v.1.15,2013-05-02 10:55:00,
2013-05-02 07:00:00,48.5,45.4,30.38,NNW,338,5.0,6.0,89,0.00,,,0.00,Wunderground v.1.15,2013-05-02 11:00:00,
2013-05-02 07:05:00,48.5,45.4,30.38,NNW,338,5.0,6.0,89,0.00,,,0.00,Wunderground v.1.15,2013-05-02 11:05:00,
2013-05-02 07:10:00,48.4,44.7,30.38,NNW,328,5.0,6.0,87,0.00,,,0.00,Wunderground v.1.15,2013-05-02 11:10:00,
2013-05-02 07:15:00,48.5,44.5,30.38,NW,322,5.0,6.0,86,0.00,,,0.00,Wunderground v.1.15,2013-05-02 11:15:00,
2013-05-02 07:20:00,48.5,44.2,30.38,NW,323,6.0,6.0,85,0.00,,,0.00,Wunderground v.1.15,2013-05-02 11:20:00,
2013-05-02 07:25:00,48.5,43.9,30.38,NNW,336,6.0,7.0,84,0.00,,,0.00,Wunderground v.1.15,2013-05-02 11:25:00,
2013-05-02 07:30:00,48.4,43.8,30.39,NW,326,6.0,7.0,84,0.00,,,0.00,Wunderground v.1.15,2013-05-02 11:30:00,
2013-05-02 07:35:00,48.4,44.1,30.39,NW,326,5.0,7.0,85,0.00,,,0.00,Wunderground v.1.15,2013-05-02 11:35:00,
2013-05-02 07:40:00,48.4,44.1,30.39,NNW,332,5.0,6.0,85,0.00,,,0.00,Wunderground v.1.15,2013-05-02 11:40:00,
2013-05-02 07:45:00,48.4,44.4,30.39,NNW,335,5.0,6.0,86,0.00,,,0.00,Wunderground v.1.15,2013-05-02 11:45:00,
2013-05-02 07:50:00,48.4,44.4,30.39,NNW,336,5.0,5.0,86,0.00,,,0.00,Wunderground v.1.15,2013-05-02 11:50:00,
2013-05-02 07:55:00,48.4,43.2,30.39,NNW,335,4.0,5.0,82,0.00,,,0.00,Wunderground v.1.15,2013-05-02 11:55:00,
2013-05-02 08:00:00,48.4,42.2,30.39,NNW,340,4.0,4.0,79,0.00,,,0.00,Wunderground v.1.15,2013-05-02 12:00:00,
2013-05-02 08:05:00,48.6,41.4,30.39,NNW,346,4.0,5.0,76,0.00,,,0.00,Wunderground v.1.15,2013-05-02 12:05:00,
2013-05-02 08:10:00,48.9,40.6,30.39,NNW,345,5.0,5.0,73,0.00,,,0.00,Wunderground v.1.15,2013-05-02 12:10:00,
2013-05-02 08:15:00,49.2,40.2,30.40,NNW,338,5.0,5.0,71,0.00,,,0.00,Wunderground v.1.15,2013-05-02 12:15:00,
2013-05-02 08:20:00,49.6,39.8,30.40,NNW,338,5.0,6.0,69,0.00,,,0.00,Wunderground v.1.15,2013-05-02 12:20:00,
2013-05-02 08:25:00,49.9,40.5,30.40,NNW,344,5.0,6.0,70,0.00,,,0.00,Wunderground v.1.15,2013-05-02 12:25:00,
2013-05-02 08:30:00,49.9,40.5,30.40,NNW,345,4.0,5.0,70,0.00,,,0.00,Wunderground v.1.15,2013-05-02 12:30:00,
2013-05-02 08:35:00,50.0,40.2,30.40,NNW,342,4.0,5.0,69,0.00,,,0.00,Wunderground v.1.15,2013-05-02 12:35:00,
2013-05-02 08:40:00,50.0,40.2,30.40,North,352,5.0,5.0,69,0.00,,,0.00,Wunderground v.1.15,2013-05-02 12:40:00,
2013-05-02 08:45:00,50.4,40.6,30.39,North,350,5.0,5.0,69,0.00,,,0.00,Wunderground v.1.15,2013-05-02 12:45:00,
2013-05-02 08:50:00,50.7,41.3,30.39,NNW,338,4.0,5.0,70,0.00,,,0.00,Wunderground v.1.15,2013-05-02 12:50:00,
2013-05-02 08:55:00,50.9,41.1,30.39,NNW,344,5.0,5.0,69,0.00,,,0.00,Wunderground v.1.15,2013-05-02 12:55:00,
2013-05-02 09:00:00,51.2,41.7,30.39,NNW,344,4.0,5.0,70,0.00,,,0.00,Wunderground v.1.15,2013-05-02 13:00:00,
2013-05-02 09:05:00,51.3,41.8,30.39,NNW,333,3.0,5.0,70,0.00,,,0.00,Wunderground v.1.15,2013-05-02 13:05:00,
2013-05-02 09:10:00,51.8,41.2,30.39,NW,308,2.0,4.0,67,0.00,,,0.00,Wunderground v.1.15,2013-05-02 13:10:00,
2013-05-02 09:15:00,52.4,42.5,30.39,NNW,333,3.0,4.0,69,0.00,,,0.00,Wunderground v.1.15,2013-05-02 13:15:00,
2013-05-02 09:20:00,53.1,42.4,30.39,NW,310,2.0,2.0,67,0.00,,,0.00,Wunderground v.1.15,2013-05-02 13:20:00,
2013-05-02 09:25:00,53.5,42.0,30.39,NW,319,3.0,3.0,65,0.00,,,0.00,Wunderground v.1.15,2013-05-02 13:25:00,
2013-05-02 09:30:00,53.3,44.1,30.39,NW,304,3.0,4.0,71,0.00,,,0.00,Wunderground v.1.15,2013-05-02 13:30:00,
2013-05-02 09:35:00,53.0,43.8,30.39,NW,311,4.0,5.0,71,0.00,,,0.00,Wunderground v.1.15,2013-05-02 13:35:00,
2013-05-02 09:40:00,52.8,42.9,30.39,WNW,302,3.0,4.0,69,0.00,,,0.00,Wunderground v.1.15,2013-05-02 13:40:00,
2013-05-02 09:45:00,53.2,42.9,30.39,NW,316,3.0,4.0,68,0.00,,,0.00,Wunderground v.1.15,2013-05-02 13:45:00,
2013-05-02 09:50:00,53.6,44.0,30.39,NW,312,3.0,4.0,70,0.00,,,0.00,Wunderground v.1.15,2013-05-02 13:50:00,
2013-05-02 09:55:00,53.8,43.9,30.39,WNW,283,4.0,5.0,69,0.00,,,0.00,Wunderground v.1.15,2013-05-02 13:55:00,
2013-05-02 10:00:00,53.8,42.7,30.38,WNW,283,5.0,5.0,66,0.00,,,0.00,Wunderground v.1.15,2013-05-02 14:00:00,
2013-05-02 10:05:00,53.9,44.3,30.38,West,280,5.0,5.0,70,0.00,,,0.00,Wunderground v.1.15,2013-05-02 14:05:00,
2013-05-02 10:10:00,54.3,42.8,30.39,West,272,4.0,4.0,65,0.00,,,0.00,Wunderground v.1.15,2013-05-02 14:10:00,
2013-05-02 10:15:00,55.0,44.6,30.38,West,263,5.0,5.0,68,0.00,,,0.00,Wunderground v.1.15,2013-05-02 14:15:00,
2013-05-02 10:20:00,55.4,44.2,30.38,West,270,4.0,5.0,66,0.00,,,0.00,Wunderground v.1.15,2013-05-02 14:20:00,
2013-05-02 10:25:00,55.7,42.5,30.38,West,272,4.0,5.0,61,0.00,,,0.00,Wunderground v.1.15,2013-05-02 14:25:00,
2013-05-02 10:30:00,55.9,43.5,30.38,West,271,5.0,5.0,63,0.00,,,0.00,Wunderground v.1.15,2013-05-02 14:30:00,
2013-05-02 10:35:00,56.3,44.7,30.38,West,267,4.0,6.0,65,0.00,,,0.00,Wunderground v.1.15,2013-05-02 14:35:00,
2013-05-02 10:40:00,57.0,42.4,30.38,West,277,5.0,5.0,58,0.00,,,0.00,Wunderground v.1.15,2013-05-02 14:40:00,
2013-05-02 10:45:00,57.5,41.9,30.38,West,271,5.0,5.0,56,0.00,,,0.00,Wunderground v.1.15,2013-05-02 14:45:00,
2013-05-02 10:50:00,57.8,42.7,30.38,West,273,4.0,5.0,57,0.00,,,0.00,Wunderground v.1.15,2013-05-02 14:50:00,
2013-05-02 10:55:00,58.0,44.6,30.38,West,268,4.0,6.0,61,0.00,,,0.00,Wunderground v.1.15,2013-05-02 14:55:00,
2013-05-02 11:00:00,58.4,44.6,30.38,West,264,6.0,6.0,60,0.00,,,0.00,Wunderground v.1.15,2013-05-02 15:00:00,
2013-05-02 11:05:00,58.8,44.9,30.38,WSW,253,4.0,6.0,60,0.00,,,0.00,Wunderground v.1.15,2013-05-02 15:05:00,
2013-05-02 11:10:00,59.2,43.5,30.38,West,262,4.0,6.0,56,0.00,,,0.00,Wunderground v.1.15,2013-05-02 15:10:00,
2013-05-02 11:15:00,59.0,44.2,30.38,WSW,256,4.0,6.0,58,0.00,,,0.00,Wunderground v.1.15,2013-05-02 15:15:00,
2013-05-02 11:20:00,59.0,44.7,30.38,West,267,4.0,6.0,59,0.00,,,0.00,Wunderground v.1.15,2013-05-02 15:20:00,
2013-05-02 11:25:00,58.8,45.8,30.38,SW,224,6.0,7.0,62,0.00,,,0.00,Wunderground v.1.15,2013-05-02 15:25:00,
2013-05-02 11:30:00,58.7,42.6,30.38,WSW,249,7.0,7.0,55,0.00,,,0.00,Wunderground v.1.15,2013-05-02 15:30:00,
2013-05-02 11:35:00,58.6,41.5,30.38,WSW,242,7.0,8.0,53,0.00,,,0.00,Wunderground v.1.15,2013-05-02 15:35:00,
2013-05-02 11:40:00,59.0,42.4,30.38,WSW,249,6.0,6.0,54,0.00,,,0.00,Wunderground v.1.15,2013-05-02 15:40:00,
2013-05-02 11:45:00,59.3,44.1,30.37,WSW,245,6.0,8.0,57,0.00,,,0.00,Wunderground v.1.15,2013-05-02 15:45:00,
2013-05-02 11:50:00,59.6,42.9,30.37,WSW,246,8.0,8.0,54,0.00,,,0.00,Wunderground v.1.15,2013-05-02 15:50:00,
2013-05-02 11:55:00,59.6,42.9,30.37,WSW,242,7.0,9.0,54,0.00,,,0.00,Wunderground v.1.15,2013-05-02 15:55:00,
2013-05-02 12:00:00,59.2,44.4,30.37,SW,221,8.0,8.0,58,0.00,,,0.00,Wunderground v.1.15,2013-05-02 16:00:00,
2013-05-02 12:05:00,59.1,45.2,30.37,SW,219,8.0,9.0,60,0.00,,,0.00,Wunderground v.1.15,2013-05-02 16:05:00,
2013-05-02 12:10:00,59.2,46.6,30.37,SW,224,7.0,8.0,63,0.00,,,0.00,Wunderground v.1.15,2013-05-02 16:10:00,
2013-05-02 12:15:00,58.5,48.0,30.37,SSW,211,7.0,9.0,68,0.00,,,0.00,Wunderground v.1.15,2013-05-02 16:15:00,
2013-05-02 12:20:00,58.0,43.7,30.37,SSW,207,8.0,8.0,59,0.00,,,0.00,Wunderground v.1.15,2013-05-02 16:20:00,
2013-05-02 12:25:00,57.7,47.6,30.37,SSW,209,7.0,9.0,69,0.00,,,0.00,Wunderground v.1.15,2013-05-02 16:25:00,
2013-05-02 12:30:00,57.2,45.9,30.37,SSW,195,6.0,7.0,66,0.00,,,0.00,Wunderground v.1.15,2013-05-02 16:30:00,
2013-05-02 12:35:00,57.1,48.2,30.37,South,190,6.0,8.0,72,0.00,,,0.00,Wunderground v.1.15,2013-05-02 16:35:00,
2013-05-02 12:40:00,55.5,48.4,30.37,SE,137,20.0,22.0,77,0.00,,,0.00,Wunderground v.1.15,2013-05-02 16:40:00,
2013-05-02 12:45:00,53.7,48.0,30.38,SE,141,19.0,22.0,81,0.00,,,0.00,Wunderground v.1.15,2013-05-02 16:45:00,
2013-05-02 12:50:00,52.2,47.2,30.38,SE,141,21.0,22.0,83,0.00,,,0.00,Wunderground v.1.15,2013-05-02 16:50:00,
2013-05-02 12:55:00,51.7,48.3,30.38,South,173,19.0,24.0,88,0.00,,,0.00,Wunderground v.1.15,2013-05-02 16:55:00,
2013-05-02 13:00:00,51.6,48.8,30.38,SSE,167,23.0,23.0,90,0.00,,,0.00,Wunderground v.1.15,2013-05-02 17:00:00,
2013-05-02 13:05:00,51.2,48.4,30.38,South,172,22.0,25.0,90,0.00,,,0.00,Wunderground v.1.15,2013-05-02 17:05:00,
2013-05-02 13:10:00,51.0,48.5,30.38,South,172,19.0,21.0,91,0.00,,,0.00,Wunderground v.1.15,2013-05-02 17:10:00,
2013-05-02 13:15:00,50.7,48.2,30.38,South,170,19.0,24.0,91,0.00,,,0.00,Wunderground v.1.15,2013-05-02 17:15:00,
2013-05-02 13:20:00,50.5,48.0,30.39,SSE,159,19.0,22.0,91,0.00,,,0.00,Wunderground v.1.15,2013-05-02 17:20:00,
2013-05-02 13:25:00,50.3,47.8,30.39,South,179,22.0,26.0,91,0.00,,,0.00,Wunderground v.1.15,2013-05-02 17:25:00,
2013-05-02 13:30:00,50.2,47.7,30.39,South,188,21.0,22.0,91,0.00,,,0.00,Wunderground v.1.15,2013-05-02 17:30:00,
2013-05-02 13:35:00,50.3,47.8,30.39,South,187,21.0,24.0,91,0.00,,,0.00,Wunderground v.1.15,2013-05-02 17:35:00,
2013-05-02 13:40:00,50.3,47.5,30.39,South,179,20.0,20.0,90,0.00,,,0.00,Wunderground v.1.15,2013-05-02 17:40:00,
2013-05-02 13:45:00,50.1,47.3,30.39,South,179,19.0,24.0,90,0.00,,,0.00,Wunderground v.1.15,2013-05-02 17:45:00,
2013-05-02 13:50:00,50.3,47.5,30.39,South,172,22.0,24.0,90,0.00,,,0.00,Wunderground v.1.15,2013-05-02 17:50:00,
2013-05-02 13:55:00,50.3,47.2,30.40,South,176,21.0,24.0,89,0.00,,,0.00,Wunderground v.1.15,2013-05-02 17:55:00,
2013-05-02 13:59:00,50.2,47.1,30.40,South,170,25.0,25.0,89,0.00,,,0.00,Wunderground v.1.15,2013-05-02 17:59:00,
2013-05-02 14:04:00,50.0,47.2,30.40,South,174,25.0,27.0,90,0.00,,,0.00,Wunderground v.1.15,2013-05-02 18:04:00,
2013-05-02 14:09:00,49.7,46.6,30.40,SSE,167,27.0,28.0,89,0.00,,,0.00,Wunderground v.1.15,2013-05-02 18:09:00,
2013-05-02 14:14:00,49.5,46.4,30.40,South,172,30.0,31.0,89,0.00,,,0.00,Wunderground v.1.15,2013-05-02 18:14:00,
2013-05-02 14:19:00,49.1,46.0,30.40,South,177,26.0,28.0,89,0.00,,,0.00,Wunderground v.1.15,2013-05-02 18:19:00,
2013-05-02 14:24:00,49.2,46.1,30.40,South,181,24.0,28.0,89,0.00,,,0.00,Wunderground v.1.15,2013-05-02 18:24:00,
2013-05-02 14:29:00,48.9,45.8,30.40,SSE,167,23.0,24.0,89,0.00,,,0.00,Wunderground v.1.15,2013-05-02 18:29:00,
2013-05-02 14:34:00,48.7,45.9,30.40,South,169,22.0,29.0,90,0.00,,,0.00,Wunderground v.1.15,2013-05-02 18:34:00,
2013-05-02 14:39:00,48.7,45.9,30.41,SSE,166,24.0,25.0,90,0.00,,,0.00,Wunderground v.1.15,2013-05-02 18:39:00,
2013-05-02 14:44:00,48.7,45.9,30.41,South,174,24.0,29.0,90,0.00,,,0.00,Wunderground v.1.15,2013-05-02 18:44:00,
2013-05-02 14:49:00,48.7,45.9,30.40,South,179,27.0,27.0,90,0.00,,,0.00,Wunderground v.1.15,2013-05-02 18:49:00,
2013-05-02 14:54:00,48.3,45.5,30.41,South,169,29.0,30.0,90,0.00,,,0.00,Wunderground v.1.15,2013-05-02 18:54:00,
2013-05-02 14:59:00,48.2,45.4,30.42,South,169,24.0,26.0,90,0.00,,,0.00,Wunderground v.1.15,2013-05-02 18:59:00,
2013-05-02 15:04:00,48.1,45.6,30.41,South,170,21.0,28.0,91,0.00,,,0.00,Wunderground v.1.15,2013-05-02 19:04:00,
2013-05-02 15:09:00,47.7,44.6,30.41,SSE,165,23.0,27.0,89,0.00,,,0.00,Wunderground v.1.15,2013-05-02 19:09:00,
2013-05-02 15:14:00,47.5,44.7,30.41,South,171,22.0,28.0,90,0.00,,,0.00,Wunderground v.1.15,2013-05-02 19:14:00,
2013-05-02 15:19:00,47.5,44.7,30.42,South,172,19.0,24.0,90,0.00,,,0.00,Wunderground v.1.15,2013-05-02 19:19:00,
2013-05-02 15:24:00,47.2,44.1,30.41,South,172,25.0,28.0,89,0.00,,,0.00,Wunderground v.1.15,2013-05-02 19:24:00,
2013-05-02 15:29:00,47.1,43.7,30.41,South,176,25.0,25.0,88,0.00,,,0.00,Wunderground v.1.15,2013-05-02 19:29:00,
2013-05-02 15:34:00,47.2,43.8,30.41,South,172,20.0,26.0,88,0.00,,,0.00,Wunderground v.1.15,2013-05-02 19:34:00,
2013-05-02 15:39:00,47.1,43.1,30.41,South,171,20.0,22.0,86,0.00,,,0.00,Wunderground v.1.15,2013-05-02 19:39:00,
2013-05-02 15:44:00,47.1,42.8,30.42,South,172,21.0,24.0,85,0.00,,,0.00,Wunderground v.1.15,2013-05-02 19:44:00,
2013-05-02 15:49:00,47.1,42.5,30.42,SSE,167,21.0,22.0,84,0.00,,,0.00,Wunderground v.1.15,2013-05-02 19:49:00,
2013-05-02 15:54:00,47.2,42.0,30.41,South,170,21.0,24.0,82,0.00,,,0.00,Wunderground v.1.15,2013-05-02 19:54:00,
2013-05-02 15:59:00,47.2,42.3,30.41,South,172,20.0,21.0,83,0.00,,,0.00,Wunderground v.1.15,2013-05-02 19:59:00,
2013-05-02 16:04:00,47.2,42.3,30.41,South,172,19.0,23.0,83,0.00,,,0.00,Wunderground v.1.15,2013-05-02 20:04:00,
2013-05-02 16:09:00,47.1,41.9,30.42,South,172,21.0,23.0,82,0.00,,,0.00,Wunderground v.1.15,2013-05-02 20:09:00,
2013-05-02 16:14:00,47.2,42.6,30.41,South,172,20.0,21.0,84,0.00,,,0.00,Wunderground v.1.15,2013-05-02 20:14:00,
2013-05-02 16:19:00,47.2,42.9,30.42,SSE,165,20.0,21.0,85,0.00,,,0.00,Wunderground v.1.15,2013-05-02 20:19:00,
2013-05-02 16:24:00,47.1,42.2,30.42,SSE,165,19.0,24.0,83,0.00,,,0.00,Wunderground v.1.15,2013-05-02 20:24:00,
2013-05-02 16:29:00,47.1,42.2,30.41,SSE,167,20.0,24.0,83,0.00,,,0.00,Wunderground v.1.15,2013-05-02 20:29:00,
2013-05-02 16:34:00,46.9,42.0,30.41,South,173,19.0,23.0,83,0.00,,,0.00,Wunderground v.1.15,2013-05-02 20:34:00,
2013-05-02 16:39:00,46.9,41.7,30.42,South,171,23.0,26.0,82,0.00,,,0.00,Wunderground v.1.15,2013-05-02 20:39:00,
2013-05-02 16:44:00,46.8,41.9,30.41,South,176,20.0,25.0,83,0.00,,,0.00,Wunderground v.1.15,2013-05-02 20:44:00,
2013-05-02 16:49:00,47.0,42.7,30.41,South,177,18.0,25.0,85,0.00,,,0.00,Wunderground v.1.15,2013-05-02 20:49:00,
2013-05-02 16:54:00,46.9,42.3,30.42,South,179,25.0,25.0,84,0.00,,,0.00,Wunderground v.1.15,2013-05-02 20:54:00,
2013-05-02 16:59:00,46.7,41.8,30.42,South,176,23.0,27.0,83,0.00,,,0.00,Wunderground v.1.15,2013-05-02 20:59:00,
2013-05-02 17:04:00,46.8,42.5,30.42,South,179,16.0,24.0,85,0.00,,,0.00,Wunderground v.1.15,2013-05-02 21:04:00,
2013-05-02 17:09:00,46.7,42.7,30.42,South,176,20.0,24.0,86,0.00,,,0.00,Wunderground v.1.15,2013-05-02 21:09:00,
2013-05-02 17:14:00,46.7,42.1,30.42,South,180,21.0,24.0,84,0.00,,,0.00,Wunderground v.1.15,2013-05-02 21:14:00,
2013-05-02 17:19:00,46.7,42.1,30.41,South,187,21.0,24.0,84,0.00,,,0.00,Wunderground v.1.15,2013-05-02 21:19:00,
2013-05-02 17:24:00,46.6,41.7,30.42,South,186,22.0,24.0,83,0.00,,,0.00,Wunderground v.1.15,2013-05-02 21:24:00,
2013-05-02 17:29:00,46.7,41.5,30.42,South,186,22.0,25.0,82,0.00,,,0.00,Wunderground v.1.15,2013-05-02 21:29:00,
2013-05-02 17:34:00,46.7,42.1,30.42,South,188,16.0,23.0,84,0.00,,,0.00,Wunderground v.1.15,2013-05-02 21:34:00,
2013-05-02 17:39:00,46.7,42.1,30.42,SSW,193,15.0,23.0,84,0.00,,,0.00,Wunderground v.1.15,2013-05-02 21:39:00,
2013-05-02 17:44:00,46.7,41.5,30.42,SSW,195,18.0,22.0,82,0.00,,,0.00,Wunderground v.1.15,2013-05-02 21:44:00,
2013-05-02 17:49:00,46.7,41.5,30.42,South,179,16.0,22.0,82,0.00,,,0.00,Wunderground v.1.15,2013-05-02 21:49:00,
2013-05-02 17:54:00,46.8,41.9,30.42,SSW,193,15.0,20.0,83,0.00,,,0.00,Wunderground v.1.15,2013-05-02 21:54:00,
2013-05-02 17:59:00,46.8,41.9,30.43,South,187,9.0,20.0,83,0.00,,,0.00,Wunderground v.1.15,2013-05-02 21:59:00,
2013-05-02 18:04:00,47.0,41.8,30.43,South,185,13.0,18.0,82,0.00,,,0.00,Wunderground v.1.15,2013-05-02 22:04:00,
2013-05-02 18:09:00,47.1,41.2,30.43,SSW,197,13.0,18.0,80,0.00,,,0.00,Wunderground v.1.15,2013-05-02 22:09:00,
2013-05-02 18:14:00,47.2,41.7,30.43,South,179,14.0,16.0,81,0.00,,,0.00,Wunderground v.1.15,2013-05-02 22:14:00,
2013-05-02 18:19:00,47.2,41.3,30.43,South,187,9.0,16.0,80,0.00,,,0.00,Wunderground v.1.15,2013-05-02 22:19:00,
2013-05-02 18:24:00,47.3,41.1,30.43,South,180,9.0,12.0,79,0.00,,,0.00,Wunderground v.1.15,2013-05-02 22:24:00,
2013-05-02 18:29:00,47.3,41.4,30.43,SSW,203,9.0,12.0,80,0.00,,,0.00,Wunderground v.1.15,2013-05-02 22:29:00,
2013-05-02 18:34:00,47.4,41.2,30.43,South,191,7.0,11.0,79,0.00,,,0.00,Wunderground v.1.15,2013-05-02 22:34:00,
2013-05-02 18:39:00,47.4,40.9,30.43,South,186,6.0,11.0,78,0.00,,,0.00,Wunderground v.1.15,2013-05-02 22:39:00,
2013-05-02 18:44:00,47.4,41.2,30.43,South,190,5.0,9.0,79,0.00,,,0.00,Wunderground v.1.15,2013-05-02 22:44:00,
2013-05-02 18:49:00,47.5,41.3,30.43,SSW,207,6.0,9.0,79,0.00,,,0.00,Wunderground v.1.15,2013-05-02 22:49:00,
2013-05-02 18:54:00,47.5,41.3,30.43,SSW,210,6.0,7.0,79,0.00,,,0.00,Wunderground v.1.15,2013-05-02 22:54:00,
2013-05-02 18:59:00,47.5,41.3,30.43,SSW,198,5.0,7.0,79,0.00,,,0.00,Wunderground v.1.15,2013-05-02 22:59:00,
2013-05-02 19:04:00,47.5,41.0,30.43,South,191,6.0,8.0,78,0.00,,,0.00,Wunderground v.1.15,2013-05-02 23:04:00,
2013-05-02 19:09:00,47.6,40.7,30.43,SSW,198,5.0,10.0,77,0.00,,,0.00,Wunderground v.1.15,2013-05-02 23:09:00,
2013-05-02 19:14:00,47.6,40.7,30.43,SSW,205,6.0,8.0,77,0.00,,,0.00,Wunderground v.1.15,2013-05-02 23:14:00,
2013-05-02 19:19:00,47.6,41.1,30.43,SW,230,7.0,8.0,78,0.00,,,0.00,Wunderground v.1.15,2013-05-02 23:19:00,
2013-05-02 19:24:00,47.8,40.6,30.43,SW,218,5.0,11.0,76,0.00,,,0.00,Wunderground v.1.15,2013-05-02 23:24:00,
2013-05-02 19:29:00,47.9,40.7,30.43,SSW,213,4.0,11.0,76,0.00,,,0.00,Wunderground v.1.15,2013-05-02 23:29:00,
2013-05-02 19:34:00,48.1,40.2,30.43,SSW,193,3.0,8.0,74,0.00,,,0.00,Wunderground v.1.15,2013-05-02 23:34:00,
2013-05-02 19:39:00,48.3,40.0,30.43,SSW,194,4.0,4.0,73,0.00,,,0.00,Wunderground v.1.15,2013-05-02 23:39:00,
2013-05-02 19:44:00,48.4,40.5,30.44,SSE,166,4.0,5.0,74,0.00,,,0.00,Wunderground v.1.15,2013-05-02 23:44:00,
2013-05-02 19:49:00,48.3,40.4,30.44,SSE,159,6.0,6.0,74,0.00,,,0.00,Wunderground v.1.15,2013-05-02 23:49:00,
2013-05-02 19:54:00,48.3,40.4,30.44,SSE,156,7.0,8.0,74,0.00,,,0.00,Wunderground v.1.15,2013-05-02 23:54:00,
2013-05-02 19:59:00,48.3,40.7,30.45,SSE,149,8.0,8.0,75,0.00,,,0.00,Wunderground v.1.15,2013-05-02 23:59:00,
2013-05-02 20:04:00,48.2,41.3,30.45,SE,145,8.0,9.0,77,0.00,,,0.00,Wunderground v.1.15,2013-05-03 00:04:00,
2013-05-02 20:09:00,48.0,41.8,30.45,SE,132,8.0,8.0,79,0.00,,,0.00,Wunderground v.1.15,2013-05-03 00:09:00,
2013-05-02 20:14:00,47.8,41.9,30.45,SE,139,9.0,9.0,80,0.00,,,0.00,Wunderground v.1.15,2013-05-03 00:14:00,
2013-05-02 20:19:00,47.7,42.2,30.45,SE,139,7.0,9.0,81,0.00,,,0.00,Wunderground v.1.15,2013-05-03 00:19:00,
2013-05-02 20:24:00,47.7,42.2,30.45,SSE,147,8.0,9.0,81,0.00,,,0.00,Wunderground v.1.15,2013-05-03 00:24:00,
2013-05-02 20:29:00,47.7,41.8,30.45,SSE,147,9.0,9.0,80,0.00,,,0.00,Wunderground v.1.15,2013-05-03 00:29:00,
2013-05-02 20:34:00,47.8,41.6,30.46,SSE,148,8.0,9.0,79,0.00,,,0.00,Wunderground v.1.15,2013-05-03 00:34:00,
2013-05-02 20:39:00,47.9,41.4,30.46,SE,143,8.0,9.0,78,0.00,,,0.00,Wunderground v.1.15,2013-05-03 00:39:00,
2013-05-02 20:44:00,48.0,41.5,30.46,SSE,149,7.0,8.0,78,0.00,,,0.00,Wunderground v.1.15,2013-05-03 00:44:00,
2013-05-02 20:49:00,48.0,41.8,30.46,SE,142,8.0,8.0,79,0.00,,,0.00,Wunderground v.1.15,2013-05-03 00:49:00,
2013-05-02 20:54:00,48.0,42.4,30.46,SE,144,7.0,9.0,81,0.00,,,0.00,Wunderground v.1.15,2013-05-03 00:54:00,
2013-05-02 20:59:00,47.9,42.7,30.46,SSE,148,8.0,9.0,82,0.00,,,0.00,Wunderground v.1.15,2013-05-03 00:59:00,
2013-05-02 21:04:00,47.9,42.7,30.46,SE,141,7.0,8.0,82,0.00,,,0.00,Wunderground v.1.15,2013-05-03 01:04:00,
2013-05-02 21:09:00,47.9,43.0,30.46,SE,136,6.0,8.0,83,0.00,,,0.00,Wunderground v.1.15,2013-05-03 01:09:00,
2013-05-02 21:14:00,47.7,43.1,30.46,SE,129,6.0,7.0,84,0.00,,,0.00,Wunderground v.1.15,2013-05-03 01:14:00,
2013-05-02 21:19:00,47.6,43.3,30.47,SE,143,6.0,7.0,85,0.00,,,0.00,Wunderground v.1.15,2013-05-03 01:19:00,
2013-05-02 21:24:00,47.5,42.9,30.47,SSE,148,8.0,8.0,84,0.00,,,0.00,Wunderground v.1.15,2013-05-03 01:24:00,
2013-05-02 21:29:00,47.5,42.3,30.47,SSE,152,8.0,9.0,82,0.00,,,0.00,Wunderground v.1.15,2013-05-03 01:29:00,
2013-05-02 21:34:00,47.7,41.8,30.47,SSE,151,8.0,9.0,80,0.00,,,0.00,Wunderground v.1.15,2013-05-03 01:34:00,
2013-05-02 21:39:00,47.7,41.8,30.47,SSE,148,9.0,9.0,80,0.00,,,0.00,Wunderground v.1.15,2013-05-03 01:39:00,
2013-05-02 21:44:00,47.8,41.9,30.47,SE,145,8.0,10.0,80,0.00,,,0.00,Wunderground v.1.15,2013-05-03 01:44:00,
2013-05-02 21:49:00,47.7,42.2,30.47,SE,144,8.0,10.0,81,0.00,,,0.00,Wunderground v.1.15,2013-05-03 01:49:00,
2013-05-02 21:54:00,47.6,42.4,30.47,SE,142,9.0,9.0,82,0.00,,,0.00,Wunderground v.1.15,2013-05-03 01:54:00,
2013-05-02 21:59:00,47.6,42.7,30.47,SE,141,8.0,9.0,83,0.00,,,0.00,Wunderground v.1.15,2013-05-03 01:59:00,
2013-05-02 22:04:00,47.6,42.4,30.47,SE,142,8.0,9.0,82,0.00,,,0.00,Wunderground v.1.15,2013-05-03 02:04:00,
2013-05-02 22:09:00,47.5,42.6,30.47,SE,136,8.0,9.0,83,0.00,,,0.00,Wunderground v.1.15,2013-05-03 02:09:00,
2013-05-02 22:14:00,47.6,42.4,30.47,SE,125,9.0,9.0,82,0.00,,,0.00,Wunderground v.1.15,2013-05-03 02:14:00,
2013-05-02 22:19:00,47.6,42.4,30.46,SE,132,8.0,9.0,82,0.00,,,0.00,Wunderground v.1.15,2013-05-03 02:19:00,
2013-05-02 22:24:00,47.6,42.7,30.47,SE,134,9.0,10.0,83,0.00,,,0.00,Wunderground v.1.15,2013-05-03 02:24:00,
2013-05-02 22:29:00,47.5,42.6,30.46,SE,130,10.0,10.0,83,0.00,,,0.00,Wunderground v.1.15,2013-05-03 02:29:00,
2013-05-02 22:34:00,47.5,42.6,30.47,SE,127,10.0,10.0,83,0.00,,,0.00,Wunderground v.1.15,2013-05-03 02:34:00,
2013-05-02 22:39:00,47.5,42.9,30.47,SE,125,11.0,11.0,84,0.00,,,0.00,Wunderground v.1.15,2013-05-03 02:39:00,
2013-05-02 22:44:00,47.4,42.8,30.47,ESE,122,10.0,11.0,84,0.00,,,0.00,Wunderground v.1.15,2013-05-03 02:44:00,
2013-05-02 22:49:00,47.4,42.5,30.47,SE,125,11.0,11.0,83,0.00,,,0.00,Wunderground v.1.15,2013-05-03 02:49:00,
2013-05-02 22:54:00,47.4,42.8,30.47,SE,124,11.0,11.0,84,0.00,,,0.00,Wunderground v.1.15,2013-05-03 02:54:00,
2013-05-02 22:59:00,47.2,43.2,30.47,ESE,113,11.0,12.0,86,0.00,,,0.00,Wunderground v.1.15,2013-05-03 02:59:00,
2013-05-02 23:04:00,46.9,42.6,30.47,ESE,122,11.0,12.0,85,0.00,,,0.00,Wunderground v.1.15,2013-05-03 03:04:00,
2013-05-02 23:09:00,46.9,42.3,30.47,SE,124,10.0,12.0,84,0.00,,,0.00,Wunderground v.1.15,2013-05-03 03:09:00,
2013-05-02 23:14:00,46.8,42.2,30.47,SE,124,11.0,11.0,84,0.00,,,0.00,Wunderground v.1.15,2013-05-03 03:14:00,
2013-05-02 23:19:00,46.8,41.6,30.47,SE,124,10.0,12.0,82,0.00,,,0.00,Wunderground v.1.15,2013-05-03 03:19:00,
2013-05-02 23:24:00,46.7,41.8,30.47,ESE,121,11.0,12.0,83,0.00,,,0.00,Wunderground v.1.15,2013-05-03 03:24:00,
2013-05-02 23:29:00,46.5,41.6,30.47,SE,129,11.0,13.0,83,0.00,,,0.00,Wunderground v.1.15,2013-05-03 03:29:00,
2013-05-02 23:34:00,46.3,41.7,30.47,SE,129,11.0,13.0,84,0.00,,,0.00,Wunderground v.1.15,2013-05-03 03:34:00,
2013-05-02 23:39:00,46.3,42.0,30.47,SE,129,12.0,13.0,85,0.00,,,0.00,Wunderground v.1.15,2013-05-03 03:39:00,
2013-05-02 23:44:00,46.5,41.6,30.47,SE,131,12.0,13.0,83,0.00,,,0.00,Wunderground v.1.15,2013-05-03 03:44:00,
2013-05-02 23:49:00,46.6,41.7,30.47,SE,134,11.0,13.0,83,0.00,,,0.00,Wunderground v.1.15,2013-05-03 03:49:00,
2013-05-02 23:54:00,46.6,42.0,30.47,SE,137,11.0,13.0,84,0.00,,,0.00,Wunderground v.1.15,2013-05-03 03:54:00,
2013-05-02 23:59:00,46.7,41.5,30.47,SE,137,13.0,15.0,82,0.00,,,0.00,Wunderground v.1.15,2013-05-03 03:59:00,